Time;durP1;ratioP1;P1;durP2;ratioP2;P2;SDS_P1;SDS_P2;PMS_P1;PMS_P2;Temp;Humidity;BMP_temperature;BMP_pressure;BME280_temperature;BME280_humidity;BME280_pressure;Samples;Min_cycle;Max_cycle;Signal;HPM_P1;HPM_P2
2024/03/28 00:00:00;;;;;;;7.88;4.13;;;9.10;78.80;;;;;;5025815;28;112698;-56
2024/03/28 00:02:30;;;;;;;9.50;4.15;;;9.10;79.00;;;;;;5025845;28;112968;-57
2024/03/28 00:04:56;;;;;;;7.85;5.15;;;9.10;79.10;;;;;;5025586;27;115444;-56
2024/03/28 00:07:22;;;;;;;6.75;4.93;;;9.00;79.20;;;;;;5027905;27;114025;-58
2024/03/28 00:09:47;;;;;;;10.95;4.82;;;9.00;79.40;;;;;;5028884;28;112616;-56
2024/03/28 00:12:13;;;;;;;8.68;4.70;;;9.00;78.90;;;;;;5029334;28;113160;-56
2024/03/28 00:14:39;;;;;;;8.50;4.38;;;9.00;79.00;;;;;;5027951;27;114277;-56
2024/03/28 00:17:04;;;;;;;8.13;4.90;;;8.90;78.70;;;;;;5028235;28;112713;-56
2024/03/28 00:19:30;;;;;;;7.90;5.00;;;8.90;78.90;;;;;;5028969;28;113117;-56
2024/03/28 00:21:56;;;;;;;10.15;4.72;;;8.90;78.70;;;;;;5029301;28;112613;-57
2024/03/28 00:24:21;;;;;;;9.90;4.80;;;8.90;78.80;;;;;;5027595;28;114647;-57
2024/03/28 00:26:47;;;;;;;8.57;4.78;;;8.90;79.10;;;;;;5043346;27;113970;-56
2024/03/28 00:29:13;;;;;;;8.32;4.80;;;8.80;78.90;;;;;;5029977;27;112875;-56
2024/03/28 00:31:39;;;;;;;8.05;4.47;;;8.70;79.00;;;;;;5028830;27;112742;-55
2024/03/28 00:34:05;;;;;;;6.53;4.38;;;8.60;79.40;;;;;;5027889;28;113247;-56
2024/03/28 00:36:30;;;;;;;8.63;5.50;;;8.50;79.50;;;;;;5042923;27;113629;-57
2024/03/28 00:38:56;;;;;;;8.30;5.40;;;8.40;80.00;;;;;;5028741;28;112687;-56
2024/03/28 00:41:22;;;;;;;7.95;4.75;;;8.40;80.00;;;;;;5028905;28;112685;-56
2024/03/28 00:43:47;;;;;;;7.28;4.15;;;8.50;80.20;;;;;;5027515;28;114512;-57
2024/03/28 00:46:13;;;;;;;5.38;3.88;;;8.40;80.00;;;;;;5027900;28;112824;-57
2024/03/28 00:48:39;;;;;;;7.50;4.05;;;8.30;80.00;;;;;;5028456;28;112739;-56
2024/03/28 00:51:05;;;;;;;5.25;4.13;;;8.20;80.40;;;;;;5028955;28;112755;-57
2024/03/28 00:53:31;;;;;;;10.05;4.03;;;8.30;80.40;;;;;;5027621;28;113250;-56
2024/03/28 00:55:59;;;;;;;7.05;3.70;;;8.20;80.40;;;;;;5022587;28;112810;-55
2024/03/28 00:58:25;;;;;;;6.40;3.70;;;8.00;80.80;;;;;;5019575;28;112711;-57
2024/03/28 01:00:50;;;;;;;5.93;4.10;;;8.00;80.80;;;;;;5028175;28;112937;-56
2024/03/28 01:03:16;;;;;;;6.38;4.10;;;7.90;80.80;;;;;;5027171;28;113392;-56
2024/03/28 01:05:42;;;;;;;8.98;4.38;;;7.90;81.30;;;;;;5027332;27;112858;-56
2024/03/28 01:08:08;;;;;;;6.95;3.90;;;7.90;81.50;;;;;;5028418;27;112592;-56
2024/03/28 01:10:35;;;;;;;9.85;3.85;;;7.90;81.20;;;;;;5028576;28;112707;-57
2024/03/28 01:13:01;;;;;;;7.45;3.70;;;7.90;81.20;;;;;;5026928;28;114476;-56
2024/03/28 01:15:26;;;;;;;6.35;3.58;;;7.80;81.30;;;;;;5026835;27;112728;-58
2024/03/28 01:17:52;;;;;;;8.18;3.85;;;7.80;81.30;;;;;;5027916;28;113644;-56
2024/03/28 01:20:18;;;;;;;5.38;3.67;;;7.80;81.30;;;;;;5028275;28;113121;-58
2024/03/28 01:22:44;;;;;;;7.10;4.45;;;7.80;81.40;;;;;;5023341;28;114461;-56
2024/03/28 01:25:10;;;;;;;9.70;3.90;;;7.80;81.20;;;;;;5021305;27;114216;-57
2024/03/28 01:27:37;;;;;;;8.27;4.20;;;7.90;80.90;;;;;;5027058;27;113320;-57
2024/03/28 01:30:04;;;;;;;7.22;4.30;;;7.90;80.50;;;;;;5032413;27;112807;-56
2024/03/28 01:32:30;;;;;;;6.07;4.18;;;7.90;80.70;;;;;;5020982;27;114613;-58
2024/03/28 01:34:55;;;;;;;6.18;3.50;;;8.00;80.50;;;;;;5022493;28;113976;-56
2024/03/28 01:37:21;;;;;;;8.80;4.00;;;8.20;80.20;;;;;;5027585;28;112497;-56
2024/03/28 01:39:47;;;;;;;5.80;3.65;;;8.00;80.30;;;;;;5027843;28;112713;-56
2024/03/28 01:42:13;;;;;;;7.47;3.63;;;8.10;80.40;;;;;;5026711;27;114166;-56
2024/03/28 01:44:39;;;;;;;5.35;3.58;;;7.90;80.70;;;;;;5026551;28;113884;-56
2024/03/28 01:47:06;;;;;;;9.13;3.53;;;8.00;80.70;;;;;;5027207;28;112752;-56
2024/03/28 01:49:32;;;;;;;6.18;3.33;;;8.10;80.20;;;;;;5027374;28;113111;-57
2024/03/28 01:52:00;;;;;;;6.38;2.88;;;8.10;80.50;;;;;;5026485;28;114337;-58
2024/03/28 01:54:27;;;;;;;5.10;3.15;;;8.10;80.20;;;;;;5026802;27;113211;-56
2024/03/28 01:56:54;;;;;;;4.90;3.00;;;8.10;80.00;;;;;;5027626;28;112545;-56
2024/03/28 01:59:20;;;;;;;6.57;3.05;;;8.30;79.90;;;;;;5027313;27;112865;-56
2024/03/28 02:01:47;;;;;;;3.80;2.85;;;8.30;79.50;;;;;;5026466;28;113892;-57
2024/03/28 02:04:13;;;;;;;6.05;3.05;;;8.40;79.20;;;;;;5026106;27;112922;-56
2024/03/28 02:06:38;;;;;;;4.30;2.50;;;8.30;79.20;;;;;;5027729;28;112873;-56
2024/03/28 02:09:08;;;;;;;6.65;3.08;;;8.40;79.20;;;;;;5027559;28;112697;-56
2024/03/28 02:11:34;;;;;;;5.28;3.08;;;8.40;79.30;;;;;;5026185;28;113732;-56
2024/03/28 02:14:00;;;;;;;3.55;2.70;;;8.60;79.00;;;;;;5041455;27;114012;-56
2024/03/28 02:16:26;;;;;;;4.18;2.60;;;8.50;79.20;;;;;;5026994;28;112774;-56
2024/03/28 02:18:56;;;;;;;5.65;3.33;;;8.40;79.10;;;;;;5027498;28;112707;-58
2024/03/28 02:21:22;;;;;;;5.78;2.80;;;8.40;79.00;;;;;;5025774;28;115117;-57
2024/03/28 02:23:53;;;;;;;6.93;2.75;;;8.50;79.00;;;;;;5026247;28;112883;-57
2024/03/28 02:26:19;;;;;;;3.13;2.65;;;8.60;78.90;;;;;;5027094;28;112618;-57
2024/03/28 02:28:45;;;;;;;7.85;3.17;;;8.40;78.90;;;;;;5025907;27;112759;-57
2024/03/28 02:31:11;;;;;;;6.60;2.80;;;8.40;79.00;;;;;;5026525;28;114659;-56
2024/03/28 02:33:37;;;;;;;6.80;3.00;;;8.30;79.40;;;;;;5025825;27;113067;-56
2024/03/28 02:36:04;;;;;;;4.50;3.17;;;8.40;79.30;;;;;;5026803;28;112529;-57
2024/03/28 02:38:30;;;;;;;7.20;3.47;;;8.40;79.10;;;;;;5026776;28;113087;-57
2024/03/28 02:40:56;;;;;;;7.85;3.47;;;8.40;79.10;;;;;;5025958;28;113559;-56
2024/03/28 02:43:22;;;;;;;5.32;3.15;;;8.30;79.00;;;;;;5025619;27;112821;-56
2024/03/28 02:45:48;;;;;;;4.55;3.47;;;8.30;79.30;;;;;;5026633;27;112971;-56
2024/03/28 02:48:14;;;;;;;4.70;3.00;;;8.20;79.40;;;;;;5026948;28;112876;-56
2024/03/28 02:50:40;;;;;;;5.63;3.40;;;8.10;79.60;;;;;;5025502;28;114466;-56
2024/03/28 02:53:06;;;;;;;6.82;3.70;;;8.20;79.70;;;;;;5025758;27;112784;-56
2024/03/28 02:55:32;;;;;;;5.72;3.38;;;8.20;79.90;;;;;;5026624;28;112617;-56
2024/03/28 02:57:57;;;;;;;6.82;3.30;;;8.10;79.70;;;;;;5026711;28;113273;-56
2024/03/28 03:00:23;;;;;;;8.60;4.03;;;8.10;79.80;;;;;;5025731;28;113185;-55
2024/03/28 03:02:49;;;;;;;6.15;3.28;;;8.00;79.70;;;;;;5025545;28;112951;-56
2024/03/28 03:05:14;;;;;;;5.45;3.00;;;8.00;79.60;;;;;;5026524;28;112997;-56
2024/03/28 03:07:40;;;;;;;5.50;3.40;;;7.90;79.80;;;;;;5026656;28;112928;-56
2024/03/28 03:10:07;;;;;;;5.60;3.40;;;7.90;79.70;;;;;;5025527;28;113439;-56
2024/03/28 03:12:32;;;;;;;7.35;2.97;;;7.80;79.90;;;;;;5025321;28;112777;-56
2024/03/28 03:14:58;;;;;;;5.53;3.80;;;7.90;80.10;;;;;;5026539;28;112731;-56
2024/03/28 03:17:25;;;;;;;5.60;3.80;;;8.10;79.70;;;;;;5026580;28;112907;-56
2024/03/28 03:19:53;;;;;;;8.00;3.67;;;8.00;79.60;;;;;;5025675;28;113196;-56
2024/03/28 03:22:19;;;;;;;5.82;3.13;;;7.90;80.20;;;;;;5040630;27;113812;-56
2024/03/28 03:24:45;;;;;;;4.43;2.97;;;8.00;80.00;;;;;;5026046;28;112842;-55
2024/03/28 03:27:16;;;;;;;6.20;3.13;;;8.10;79.60;;;;;;5026259;28;112821;-56
2024/03/28 03:35:21;;;;;;;7.47;3.13;;;7.90;79.80;;;;;;5016514;28;112777;-56
2024/03/28 03:37:47;;;;;;;5.07;3.40;;;7.90;79.90;;;;;;5026391;27;113015;-56
2024/03/28 03:40:13;;;;;;;11.57;3.55;;;7.90;79.90;;;;;;5028105;28;113325;-56
2024/03/28 03:42:39;;;;;;;8.18;3.40;;;7.90;79.70;;;;;;5028459;28;114709;-58
2024/03/28 03:45:05;;;;;;;4.70;2.88;;;7.90;79.50;;;;;;5029678;28;112618;-58
2024/03/28 03:47:31;;;;;;;4.78;3.30;;;7.90;79.60;;;;;;5029460;28;113153;-56
2024/03/28 03:49:57;;;;;;;6.78;3.67;;;7.90;79.40;;;;;;5028265;27;114901;-56
2024/03/28 03:52:23;;;;;;;7.57;3.50;;;7.90;79.60;;;;;;5028294;27;112752;-55
2024/03/28 03:54:49;;;;;;;7.75;3.50;;;7.90;79.60;;;;;;5029423;28;112571;-56
2024/03/28 03:57:15;;;;;;;5.75;3.60;;;7.80;79.40;;;;;;5029511;27;112952;-56
2024/03/28 03:59:40;;;;;;;5.45;3.67;;;7.60;80.20;;;;;;5028389;28;113078;-57
2024/03/28 04:02:07;;;;;;;6.63;3.70;;;7.60;80.50;;;;;;5028273;28;112827;-56
2024/03/28 04:04:33;;;;;;;7.38;3.60;;;7.60;80.50;;;;;;5028824;28;112896;-56
2024/03/28 04:06:59;;;;;;;8.30;3.95;;;7.50;80.90;;;;;;5029592;27;115527;-56
2024/03/28 04:09:26;;;;;;;6.20;3.53;;;7.50;81.10;;;;;;5028404;27;116170;-56
2024/03/28 04:11:51;;;;;;;6.28;3.35;;;7.50;80.80;;;;;;5028203;28;113049;-56
2024/03/28 04:14:18;;;;;;;5.70;3.70;;;7.50;80.80;;;;;;5028670;28;112652;-56
2024/03/28 04:16:44;;;;;;;5.28;3.40;;;7.50;80.50;;;;;;5029428;27;114149;-57
2024/03/28 04:19:10;;;;;;;5.55;3.78;;;7.40;80.60;;;;;;5027934;28;113046;-56
2024/03/28 04:21:36;;;;;;;8.90;3.97;;;7.30;80.90;;;;;;5019683;27;112651;-56
2024/03/28 04:24:02;;;;;;;4.47;3.72;;;7.20;81.10;;;;;;5028596;27;112537;-56
2024/03/28 04:26:28;;;;;;;7.55;3.83;;;7.30;81.30;;;;;;5028803;28;112804;-55
2024/03/28 04:28:54;;;;;;;4.20;3.80;;;7.30;81.20;;;;;;5027978;28;113140;-57
2024/03/28 04:31:21;;;;;;;5.70;3.55;;;7.30;81.40;;;;;;5028582;28;113420;-56
2024/03/28 04:33:47;;;;;;;7.82;3.92;;;7.30;81.20;;;;;;5028675;28;112847;-57
2024/03/28 04:36:14;;;;;;;6.15;3.92;;;7.20;81.20;;;;;;5029136;28;113007;-56
2024/03/28 04:38:42;;;;;;;7.80;4.25;;;7.30;80.70;;;;;;5027461;27;114928;-58
2024/03/28 04:41:08;;;;;;;6.88;4.30;;;7.40;80.50;;;;;;5027612;28;112732;-56
2024/03/28 04:43:34;;;;;;;4.00;3.38;;;7.20;81.00;;;;;;5028420;27;112574;-56
2024/03/28 04:46:00;;;;;;;4.82;3.80;;;7.20;80.90;;;;;;5028638;28;112687;-55
2024/03/28 04:48:26;;;;;;;6.35;3.85;;;7.20;80.80;;;;;;5027298;27;114304;-55
2024/03/28 04:50:51;;;;;;;6.85;3.60;;;7.20;80.80;;;;;;5026523;27;113767;-56
2024/03/28 04:53:17;;;;;;;6.03;3.72;;;7.10;80.80;;;;;;5028180;27;112842;-57
2024/03/28 04:55:43;;;;;;;6.43;3.80;;;7.20;80.60;;;;;;5028594;28;112789;-55
2024/03/28 04:58:08;;;;;;;4.13;3.40;;;7.20;80.40;;;;;;5027883;28;113289;-56
2024/03/28 05:00:35;;;;;;;5.47;3.85;;;7.10;80.50;;;;;;5027021;28;113810;-55
2024/03/28 05:03:01;;;;;;;5.57;3.50;;;7.20;80.50;;;;;;5028309;28;112814;-56
2024/03/28 05:05:27;;;;;;;5.85;3.92;;;7.10;80.50;;;;;;5027837;28;113086;-56
2024/03/28 05:07:53;;;;;;;5.50;3.80;;;7.10;80.40;;;;;;5027624;27;113621;-55
2024/03/28 05:10:18;;;;;;;6.10;3.95;;;7.00;80.70;;;;;;5027254;28;114514;-56
2024/03/28 05:12:44;;;;;;;6.90;3.63;;;6.90;80.60;;;;;;5028117;28;112722;-56
2024/03/28 05:15:10;;;;;;;6.32;3.80;;;6.90;80.80;;;;;;5028374;28;112753;-54
2024/03/28 05:17:36;;;;;;;8.95;3.95;;;6.90;81.00;;;;;;5027089;27;114232;-56
2024/03/28 05:20:02;;;;;;;5.65;4.20;;;6.90;80.40;;;;;;5027144;27;112606;-56
2024/03/28 05:22:29;;;;;;;10.30;5.50;;;6.80;80.70;;;;;;5028110;27;112750;-55
2024/03/28 05:24:55;;;;;;;7.55;4.85;;;6.90;81.10;;;;;;5028130;28;112789;-56
2024/03/28 05:27:21;;;;;;;7.28;3.97;;;6.80;81.10;;;;;;5042539;27;114726;-56
2024/03/28 05:29:48;;;;;;;5.95;4.05;;;6.80;81.50;;;;;;5026634;28;113589;-54
2024/03/28 05:32:14;;;;;;;8.70;4.55;;;7.00;81.60;;;;;;5027708;27;112598;-56
2024/03/28 05:34:41;;;;;;;6.25;4.07;;;7.10;81.70;;;;;;5043410;27;113263;-55
2024/03/28 05:37:08;;;;;;;8.93;4.50;;;7.10;81.80;;;;;;5026659;28;114573;-56
2024/03/28 05:39:33;;;;;;;5.88;4.22;;;7.10;81.70;;;;;;5026823;28;114445;-56
2024/03/28 05:41:59;;;;;;;7.70;4.40;;;7.20;81.50;;;;;;5027637;28;112601;-56
2024/03/28 05:44:25;;;;;;;5.90;4.13;;;7.30;81.60;;;;;;5027582;28;112858;-56
2024/03/28 05:46:50;;;;;;;7.50;4.10;;;7.30;81.50;;;;;;5026832;28;113234;-57
2024/03/28 05:49:16;;;;;;;7.13;4.05;;;7.40;81.30;;;;;;5026687;28;113233;-56
2024/03/28 05:51:42;;;;;;;16.27;4.80;;;7.40;81.10;;;;;;5027363;28;112963;-55
2024/03/28 05:54:08;;;;;;;8.32;4.72;;;7.50;81.20;;;;;;5013481;28;112652;-56
2024/03/28 05:56:34;;;;;;;6.20;4.50;;;7.60;81.10;;;;;;5026448;27;114578;-55
2024/03/28 05:59:00;;;;;;;6.50;3.85;;;7.80;81.00;;;;;;5026276;28;113921;-57
2024/03/28 06:01:25;;;;;;;8.95;4.50;;;7.80;80.90;;;;;;5027418;28;112813;-56
2024/03/28 06:03:51;;;;;;;6.45;4.22;;;8.00;80.50;;;;;;5027238;28;112788;-56
2024/03/28 06:06:17;;;;;;;8.02;4.43;;;8.10;80.50;;;;;;5026382;28;113050;-56
2024/03/28 06:08:43;;;;;;;8.07;4.30;;;8.20;80.20;;;;;;5026114;28;113927;-55
2024/03/28 06:11:09;;;;;;;8.15;4.35;;;8.30;79.80;;;;;;5027652;28;113589;-56
2024/03/28 06:13:35;;;;;;;8.95;4.43;;;8.50;79.60;;;;;;5027374;28;113019;-55
2024/03/28 06:16:01;;;;;;;10.30;4.30;;;8.60;79.30;;;;;;5026161;28;113139;-56
2024/03/28 06:18:30;;;;;;;9.48;4.30;;;8.80;78.70;;;;;;5026024;27;112946;-56
2024/03/28 06:21:03;;;;;;;6.63;4.10;;;8.90;78.00;;;;;;5026802;28;112943;-56
2024/03/28 06:23:29;;;;;;;8.25;4.40;;;9.10;77.70;;;;;;5027270;28;112671;-56
2024/03/28 06:25:55;;;;;;;6.57;4.78;;;9.30;77.90;;;;;;5025798;28;114339;-56
2024/03/28 06:28:21;;;;;;;10.65;4.63;;;9.20;78.10;;;;;;5025493;27;112963;-56
2024/03/28 06:30:56;;;;;;;7.68;4.65;;;9.40;77.70;;;;;;5042747;27;112695;-56
2024/03/28 06:33:23;;;;;;;8.82;4.22;;;9.70;77.30;;;;;;5014541;28;112669;-56
2024/03/28 06:35:49;;;;;;;7.85;4.32;;;10.00;76.60;;;;;;5032421;27;114610;-56
2024/03/28 06:38:15;;;;;;;9.43;6.30;;;10.20;76.20;;;;;;5020907;28;113892;-55
2024/03/28 06:40:41;;;;;;;26.38;14.13;;;10.20;75.90;;;;;;5026750;28;112459;-57
2024/03/28 06:43:06;;;;;;;14.32;10.68;;;10.20;75.80;;;;;;5026090;28;112664;-56
2024/03/28 06:45:32;;;;;;;9.52;4.78;;;10.20;75.40;;;;;;5024836;27;114306;-56
2024/03/28 06:47:58;;;;;;;8.68;4.10;;;10.10;75.50;;;;;;5025893;28;113669;-56
2024/03/28 06:50:24;;;;;;;6.38;4.00;;;10.00;75.80;;;;;;5026534;27;113132;-56
2024/03/28 06:52:52;;;;;;;6.20;3.90;;;9.80;75.90;;;;;;5026908;27;112777;-56
2024/03/28 06:55:18;;;;;;;6.20;4.10;;;9.80;76.40;;;;;;5025719;28;113251;-58
2024/03/28 06:57:44;;;;;;;8.20;4.03;;;9.80;77.00;;;;;;5025480;28;113102;-57
2024/03/28 07:00:10;;;;;;;7.30;3.95;;;9.80;77.30;;;;;;5026734;28;112946;-56
2024/03/28 07:02:36;;;;;;;5.88;3.75;;;9.90;77.20;;;;;;5028184;27;112864;-56
2024/03/28 07:05:02;;;;;;;6.88;3.97;;;9.90;77.30;;;;;;5024223;28;113368;-56
2024/03/28 07:07:29;;;;;;;6.85;4.05;;;9.90;77.60;;;;;;5025372;27;112696;-57
2024/03/28 07:09:58;;;;;;;5.80;4.25;;;9.90;78.10;;;;;;5026082;27;112883;-56
2024/03/28 07:12:25;;;;;;;7.30;3.85;;;10.00;78.10;;;;;;5026291;28;112778;-56
2024/03/28 07:14:51;;;;;;;6.13;3.90;;;10.10;77.60;;;;;;5027337;28;114340;-57
2024/03/28 07:17:16;;;;;;;10.38;3.78;;;10.10;77.80;;;;;;5028777;27;112852;-56
2024/03/28 07:19:42;;;;;;;7.47;3.42;;;10.20;77.20;;;;;;5028012;27;113036;-56
2024/03/28 07:22:08;;;;;;;6.47;3.60;;;10.20;76.70;;;;;;5028542;28;112871;-56
2024/03/28 07:24:37;;;;;;;8.05;3.70;;;10.20;77.00;;;;;;5028805;28;114597;-56
2024/03/28 07:27:03;;;;;;;4.22;3.50;;;10.10;77.20;;;;;;5028647;28;112697;-56
2024/03/28 07:29:29;;;;;;;6.30;3.50;;;10.20;77.30;;;;;;5030420;27;112454;-56
2024/03/28 07:31:55;;;;;;;10.98;4.35;;;10.20;77.40;;;;;;5029595;27;112796;-56
2024/03/28 07:34:21;;;;;;;6.88;4.03;;;10.30;77.60;;;;;;5028732;28;113202;-57
2024/03/28 07:36:46;;;;;;;12.73;7.60;;;10.40;77.50;;;;;;5028792;28;112923;-56
2024/03/28 07:39:15;;;;;;;7.75;5.78;;;10.40;77.10;;;;;;5028249;28;112666;-56
2024/03/28 07:41:41;;;;;;;7.97;3.78;;;10.50;76.60;;;;;;5029917;28;112903;-56
2024/03/28 07:44:07;;;;;;;6.00;2.60;;;10.70;75.60;;;;;;5028934;28;113216;-56
2024/03/28 07:46:33;;;;;;;5.85;2.63;;;10.70;75.60;;;;;;5028547;27;113865;-56
2024/03/28 07:48:59;;;;;;;9.50;3.25;;;10.80;75.90;;;;;;5045277;27;113066;-57
2024/03/28 07:51:24;;;;;;;7.45;2.47;;;10.60;76.10;;;;;;5029921;28;112762;-56
2024/03/28 07:53:52;;;;;;;6.43;2.60;;;10.60;76.20;;;;;;5028879;28;113145;-56
2024/03/28 07:56:19;;;;;;;7.43;2.63;;;10.50;76.20;;;;;;5028185;28;114301;-56
2024/03/28 07:58:45;;;;;;;22.25;12.38;;;10.40;76.00;;;;;;5029391;28;112751;-56
2024/03/28 08:01:11;;;;;;;16.42;9.40;;;10.50;76.10;;;;;;5029115;27;112689;-56
2024/03/28 08:03:37;;;;;;;9.52;4.97;;;10.60;76.40;;;;;;5028553;27;114374;-56
2024/03/28 08:06:04;;;;;;;6.97;3.47;;;10.70;76.70;;;;;;5028613;28;112883;-56
2024/03/28 08:08:31;;;;;;;6.25;2.47;;;10.80;76.90;;;;;;5029212;27;112619;-56
2024/03/28 08:10:57;;;;;;;8.00;2.92;;;10.90;76.10;;;;;;5029418;28;112727;-56
2024/03/28 08:13:23;;;;;;;4.45;2.55;;;11.00;76.40;;;;;;5028778;28;113161;-56
2024/03/28 08:15:48;;;;;;;6.95;2.90;;;11.00;76.90;;;;;;5028439;28;113191;-56
2024/03/28 08:18:14;;;;;;;11.68;2.70;;;11.00;77.00;;;;;;5029432;28;112537;-56
2024/03/28 08:20:40;;;;;;;4.43;2.20;;;11.00;76.90;;;;;;5028995;28;112674;-55
2024/03/28 08:23:05;;;;;;;5.20;2.35;;;10.90;76.90;;;;;;5028424;28;113321;-57
2024/03/28 08:25:32;;;;;;;6.72;2.20;;;11.00;76.50;;;;;;5026712;28;114345;-56
2024/03/28 08:27:58;;;;;;;8.55;2.15;;;11.10;76.00;;;;;;5028636;27;113122;-56
2024/03/28 08:30:24;;;;;;;4.40;2.40;;;11.10;75.30;;;;;;5029832;28;112689;-56
2024/03/28 08:32:55;;;;;;;6.07;2.20;;;11.20;76.60;;;;;;5027811;27;114488;-58
2024/03/28 08:35:22;;;;;;;6.43;2.67;;;11.30;76.90;;;;;;5013469;27;113978;-56
2024/03/28 08:37:48;;;;;;;10.63;3.15;;;11.30;76.70;;;;;;5029060;27;112563;-56
2024/03/28 08:40:14;;;;;;;6.25;3.33;;;11.30;76.50;;;;;;5029133;28;112804;-56
2024/03/28 08:42:40;;;;;;;9.60;3.55;;;11.30;77.00;;;;;;5027937;28;113091;-56
2024/03/28 08:45:11;;;;;;;8.70;3.15;;;11.30;77.80;;;;;;5042871;27;114542;-56
2024/03/28 08:47:37;;;;;;;8.90;3.17;;;11.30;77.30;;;;;;5028527;28;112510;-56
2024/03/28 08:50:05;;;;;;;5.15;2.40;;;11.40;77.20;;;;;;5027506;28;112829;-56
2024/03/28 08:52:31;;;;;;;4.85;2.30;;;11.50;76.70;;;;;;5027756;28;113527;-56
2024/03/28 08:54:57;;;;;;;7.65;3.40;;;11.60;76.60;;;;;;5027496;28;113674;-56
2024/03/28 08:57:27;;;;;;;5.93;2.47;;;11.70;77.00;;;;;;5028419;28;112680;-59
2024/03/28 08:59:54;;;;;;;19.92;13.25;;;11.70;76.90;;;;;;5027359;28;112931;-56
2024/03/28 09:02:20;;;;;;;11.48;6.13;;;11.80;77.30;;;;;;5026970;28;113165;-57
2024/03/28 09:04:47;;;;;;;17.35;11.20;;;11.80;77.30;;;;;;5027698;27;112769;-56
2024/03/28 09:07:14;;;;;;;6.63;2.83;;;11.80;77.40;;;;;;5027642;28;112606;-56
2024/03/28 09:09:40;;;;;;;9.10;2.75;;;11.80;77.30;;;;;;5028366;28;112672;-56
2024/03/28 09:12:07;;;;;;;6.10;2.70;;;11.60;77.80;;;;;;5027481;27;113493;-56
2024/03/28 09:14:34;;;;;;;8.85;3.45;;;11.60;77.80;;;;;;5027621;28;112986;-56
2024/03/28 09:17:00;;;;;;;7.57;3.40;;;11.60;77.80;;;;;;5028236;28;112669;-56
2024/03/28 09:19:27;;;;;;;6.13;3.70;;;11.40;77.80;;;;;;5028284;28;112704;-56
2024/03/28 09:21:53;;;;;;;10.25;4.57;;;11.30;78.10;;;;;;5027097;27;115073;-56
2024/03/28 09:24:19;;;;;;;10.02;5.63;;;11.30;78.70;;;;;;5027275;28;112952;-56
2024/03/28 09:26:46;;;;;;;8.48;3.50;;;11.10;79.00;;;;;;5027961;28;112697;-56
2024/03/28 09:29:13;;;;;;;8.82;3.08;;;11.10;79.20;;;;;;5028311;28;112601;-56
2024/03/28 09:31:39;;;;;;;6.70;3.28;;;11.20;79.30;;;;;;5027717;27;113355;-56
2024/03/28 09:34:05;;;;;;;9.27;3.40;;;11.20;79.80;;;;;;5018052;28;112708;-57
2024/03/28 09:36:31;;;;;;;8.30;3.75;;;11.20;79.90;;;;;;5022205;27;112927;-56
2024/03/28 09:38:57;;;;;;;7.13;3.78;;;11.30;80.10;;;;;;5028274;28;112783;-56
2024/03/28 09:41:27;;;;;;;9.32;4.47;;;11.30;80.30;;;;;;5027203;28;113558;-55
2024/03/28 09:44:09;;;;;;;9.00;5.05;;;11.20;80.60;;;;;;5026975;27;112699;-56
2024/03/28 09:46:35;;;;;;;11.70;5.53;;;10.90;81.20;;;;;;5028013;28;113133;-56
2024/03/28 09:49:02;;;;;;;8.23;4.20;;;10.90;81.50;;;;;;5027873;28;112924;-56
2024/03/28 09:51:29;;;;;;;8.48;4.13;;;11.00;81.00;;;;;;5026808;27;113314;-56
2024/03/28 09:53:59;;;;;;;10.85;4.30;;;11.20;81.00;;;;;;5026562;28;112784;-56
2024/03/28 09:56:25;;;;;;;6.53;3.45;;;11.20;80.50;;;;;;5027425;28;112793;-56
2024/03/28 09:58:51;;;;;;;6.55;3.60;;;11.20;80.50;;;;;;5042831;27;115646;-57
2024/03/28 10:01:17;;;;;;;6.10;3.53;;;11.20;80.60;;;;;;5041869;27;116871;-57
2024/03/28 10:03:50;;;;;;;9.07;3.92;;;11.00;81.10;;;;;;5026391;28;113998;-56
2024/03/28 10:06:16;;;;;;;6.25;3.20;;;10.90;81.00;;;;;;5027557;28;112614;-55
2024/03/28 10:08:42;;;;;;;9.05;3.30;;;10.90;81.00;;;;;;5027671;27;112656;-56
2024/03/28 10:11:08;;;;;;;5.30;3.00;;;10.90;81.00;;;;;;5026497;27;113191;-56
2024/03/28 10:13:44;;;;;;;6.80;3.13;;;11.00;81.10;;;;;;5026588;28;112845;-58
2024/03/28 10:16:12;;;;;;;6.03;3.10;;;11.20;80.70;;;;;;5027547;27;112507;-57
2024/03/28 10:18:39;;;;;;;8.77;3.15;;;11.20;80.50;;;;;;5027644;27;112675;-57
2024/03/28 10:21:05;;;;;;;8.70;3.78;;;11.20;80.60;;;;;;5026178;27;113586;-56
2024/03/28 10:23:31;;;;;;;12.70;5.70;;;11.10;80.90;;;;;;5025674;28;114564;-57
2024/03/28 10:25:58;;;;;;;17.05;7.18;;;11.10;81.50;;;;;;5026788;28;112914;-56
2024/03/28 10:28:36;;;;;;;9.10;4.35;;;11.00;81.60;;;;;;5027172;28;112653;-58
2024/03/28 10:31:04;;;;;;;8.70;4.00;;;11.00;81.80;;;;;;5026264;28;114424;-57
2024/03/28 10:33:35;;;;;;;7.45;3.85;;;11.10;81.80;;;;;;5021961;28;112872;-56
2024/03/28 10:36:03;;;;;;;7.50;3.83;;;11.10;82.00;;;;;;5017688;28;112592;-59
2024/03/28 10:38:28;;;;;;;7.85;3.20;;;11.00;82.10;;;;;;5026887;27;113022;-56
2024/03/28 10:40:57;;;;;;;7.70;3.53;;;10.90;82.40;;;;;;5026077;27;114250;-56
2024/03/28 10:43:24;;;;;;;7.00;3.58;;;10.80;82.70;;;;;;5025885;28;113168;-56
2024/03/28 10:45:52;;;;;;;6.60;3.35;;;10.80;82.50;;;;;;5026624;27;112577;-56
2024/03/28 10:48:19;;;;;;;6.50;4.07;;;10.70;82.80;;;;;;5025791;28;112602;-56
2024/03/28 10:51:00;;;;;;;6.95;4.32;;;10.70;83.00;;;;;;5011510;28;114924;-56
2024/03/28 10:54:04;;;;;;;10.90;4.40;;;10.70;83.30;;;;;;5024205;28;113823;-56
2024/03/28 10:56:31;;;;;;;7.20;4.00;;;10.80;83.10;;;;;;5027053;28;113358;-55
2024/03/28 10:59:00;;;;;;;8.65;3.83;;;10.80;83.30;;;;;;5026531;27;112809;-56
2024/03/28 11:01:31;;;;;;;10.30;4.85;;;10.80;83.30;;;;;;5025629;28;114652;-55
2024/03/28 11:03:59;;;;;;;8.00;4.10;;;10.90;83.30;;;;;;5025716;28;112665;-58
2024/03/28 11:06:26;;;;;;;7.00;3.67;;;10.90;83.00;;;;;;5026617;27;113044;-55
2024/03/28 11:09:01;;;;;;;9.40;3.30;;;10.90;82.80;;;;;;5026557;28;112869;-55
2024/03/28 11:11:27;;;;;;;7.78;3.60;;;10.90;82.70;;;;;;5025136;28;114356;-55
2024/03/28 11:13:53;;;;;;;6.00;3.70;;;10.90;82.70;;;;;;5025360;28;112922;-55
2024/03/28 11:16:25;;;;;;;6.65;4.05;;;10.90;82.60;;;;;;5026672;27;112716;-56
2024/03/28 11:18:51;;;;;;;;;;;10.90;82.80;;;;;;5026936;28;112943;-57
2024/03/28 11:21:26;;;;;;;9.13;3.90;;;10.80;83.10;;;;;;5026419;28;114650;-55
2024/03/28 11:23:53;;;;;;;10.68;4.22;;;10.90;83.20;;;;;;5025244;28;114734;-56
2024/03/28 11:26:23;;;;;;;8.43;3.47;;;10.90;83.00;;;;;;5041593;27;112712;-55
2024/03/28 11:29:03;;;;;;;8.02;3.92;;;10.80;82.90;;;;;;5026386;28;112724;-56
2024/03/28 11:31:29;;;;;;;6.53;3.63;;;10.80;83.30;;;;;;5025941;28;113341;-55
2024/03/28 11:34:03;;;;;;;7.57;3.35;;;10.90;83.20;;;;;;5033121;27;114084;-58
2024/03/28 11:36:33;;;;;;;6.40;3.30;;;11.10;82.90;;;;;;5020652;28;112585;-56
2024/03/28 11:38:59;;;;;;;6.57;3.60;;;11.00;82.70;;;;;;5026285;27;112806;-58
2024/03/28 11:41:26;;;;;;;8.48;3.28;;;11.00;82.70;;;;;;5025270;27;113201;-56
2024/03/28 11:43:53;;;;;;;5.85;3.10;;;10.80;83.30;;;;;;5025145;28;112899;-55
2024/03/28 11:46:22;;;;;;;6.72;3.92;;;11.00;83.70;;;;;;5025918;27;112964;-57
2024/03/28 11:48:55;;;;;;;6.32;3.45;;;11.10;83.10;;;;;;5026006;28;112762;-56
2024/03/28 11:51:21;;;;;;;4.05;2.60;;;10.90;83.00;;;;;;5025347;28;114269;-55
2024/03/28 11:53:47;;;;;;;4.28;2.28;;;10.80;83.20;;;;;;5024765;28;114278;-56
2024/03/28 11:56:13;;;;;;;4.38;2.40;;;10.80;83.20;;;;;;5026394;28;112785;-55
2024/03/28 11:58:39;;;;;;;5.20;3.15;;;10.80;83.30;;;;;;5026144;27;112743;-56
2024/03/28 12:01:06;;;;;;;6.68;3.42;;;10.70;83.50;;;;;;5027681;27;113129;-55
2024/03/28 12:03:32;;;;;;;7.75;3.28;;;10.80;83.60;;;;;;5027968;28;113936;-55
2024/03/28 12:05:59;;;;;;;7.80;4.07;;;10.70;83.80;;;;;;5029614;28;113300;-55
2024/03/28 12:08:30;;;;;;;8.77;4.38;;;10.60;83.80;;;;;;5029561;27;112863;-55
2024/03/28 12:11:04;;;;;;;6.68;4.10;;;10.70;84.30;;;;;;5028059;27;114349;-55
2024/03/28 12:13:31;;;;;;;7.43;4.35;;;10.80;84.10;;;;;;5028199;28;113622;-56
2024/03/28 12:15:58;;;;;;;6.45;3.58;;;10.90;84.00;;;;;;5029019;27;113048;-57
2024/03/28 12:18:25;;;;;;;6.28;3.85;;;11.20;83.20;;;;;;5029661;27;112861;-55
2024/03/28 12:21:11;;;;;;;9.75;4.63;;;11.50;82.80;;;;;;5043524;27;116028;-56
2024/03/28 12:23:38;;;;;;;7.13;4.00;;;11.70;82.50;;;;;;5028289;28;112736;-55
2024/03/28 12:26:04;;;;;;;6.28;4.15;;;11.50;82.30;;;;;;5029008;27;113240;-57
2024/03/28 12:28:29;;;;;;;13.85;8.70;;;11.30;82.80;;;;;;5028777;28;112834;-55
2024/03/28 12:31:00;;;;;;;14.05;8.98;;;11.20;83.30;;;;;;5028451;28;113355;-55
2024/03/28 12:33:26;;;;;;;7.57;5.28;;;11.00;83.90;;;;;;5024425;28;114107;-55
2024/03/28 12:35:54;;;;;;;8.85;5.70;;;11.10;84.00;;;;;;5018345;28;112592;-55
2024/03/28 12:38:19;;;;;;;7.72;5.57;;;11.10;84.10;;;;;;5029007;28;113620;-55
2024/03/28 12:40:47;;;;;;;10.45;5.55;;;11.20;83.90;;;;;;5027657;27;114951;-55
2024/03/28 12:43:18;;;;;;;7.90;5.75;;;11.20;84.00;;;;;;5027458;28;113683;-55